﻿<?xml version="1.0" encoding="UTF-8" standalone="no"?>
<gpx xmlns="http://www.topografix.com/GPX/1/1" xmlns:gpxtpx="http://www.garmin.com/xmlschemas/TrackPointExtension/v1" xmlns:xsi="http://www.w3.org/2001/XMLSchema-instance" creator="Hribi.net" version="1.1" xsi:schemaLocation="http://www.topografix.com/GPX/1/1 http://www.topografix.com/GPX/1/1/gpx.xsd http://www.garmin.com/xmlschemas/TrackPointExtension/v1 http://www.garmin.com/xmlschemas/TrackPointExtensionv1.xsd">
  <metadata>
    <name>GPS sled</name>
    <desc>www.hribi.net</desc>
    <author>
      <name>hribi.net</name>
    </author>
    <link href="http://www.hribi.net">
      <text>Hribi.net</text>
    </link>
  </metadata>
  <trk>
    <trkseg>
      <trkpt lat="46.343948" lon="14.317538">
        <ele>839.114379882813</ele>
        <time>2006-04-08T07:00:18Z</time>
      </trkpt>
      <trkpt lat="46.343975" lon="14.317449">
        <ele>836.98077392578</ele>
        <time>2006-04-08T07:00:28Z</time>
      </trkpt>
      <trkpt lat="46.344147" lon="14.317302">
        <ele>834.542419433594</ele>
        <time>2006-04-08T07:01:03Z</time>
      </trkpt>
      <trkpt lat="46.344151" lon="14.3173">
        <ele>836.06640625</ele>
        <time>2006-04-08T07:01:03Z</time>
      </trkpt>
      <trkpt lat="46.344193" lon="14.317318">
        <ele>836.371215820312</ele>
        <time>2006-04-08T07:01:10Z</time>
      </trkpt>
      <trkpt lat="46.344238" lon="14.317355">
        <ele>834.237609863282</ele>
        <time>2006-04-08T07:01:15Z</time>
      </trkpt>
      <trkpt lat="46.344265" lon="14.317362">
        <ele>833.627990722656</ele>
        <time>2006-04-08T07:01:17Z</time>
      </trkpt>
      <trkpt lat="46.34433" lon="14.317351">
        <ele>834.237609863282</ele>
        <time>2006-04-08T07:01:24Z</time>
      </trkpt>
      <trkpt lat="46.344402" lon="14.317393">
        <ele>837.285583496095</ele>
        <time>2006-04-08T07:01:36Z</time>
      </trkpt>
      <trkpt lat="46.344498" lon="14.317538">
        <ele>839.723999023436</ele>
        <time>2006-04-08T07:01:55Z</time>
      </trkpt>
      <trkpt lat="46.344509" lon="14.317558">
        <ele>841.247985839842</ele>
        <time>2006-04-08T07:01:59Z</time>
      </trkpt>
      <trkpt lat="46.344604" lon="14.317654">
        <ele>844.600830078124</ele>
        <time>2006-04-08T07:02:14Z</time>
      </trkpt>
      <trkpt lat="46.344707" lon="14.317852">
        <ele>857.097595214844</ele>
        <time>2006-04-08T07:02:37Z</time>
      </trkpt>
      <trkpt lat="46.344929" lon="14.317865">
        <ele>861.669616699218</ele>
        <time>2006-04-08T07:03:05Z</time>
      </trkpt>
      <trkpt lat="46.345043" lon="14.317754">
        <ele>867.460815429686</ele>
        <time>2006-04-08T07:03:27Z</time>
      </trkpt>
      <trkpt lat="46.345264" lon="14.317839">
        <ele>867.460815429686</ele>
        <time>2006-04-08T07:03:52Z</time>
      </trkpt>
      <trkpt lat="46.345505" lon="14.317855">
        <ele>874.166381835938</ele>
        <time>2006-04-08T07:04:30Z</time>
      </trkpt>
      <trkpt lat="46.345665" lon="14.31783">
        <ele>874.776000976564</ele>
        <time>2006-04-08T07:05:00Z</time>
      </trkpt>
      <trkpt lat="46.34597" lon="14.317725">
        <ele>882.091186523439</ele>
        <time>2006-04-08T07:05:54Z</time>
      </trkpt>
      <trkpt lat="46.346001" lon="14.317707">
        <ele>882.091186523439</ele>
        <time>2006-04-08T07:06:01Z</time>
      </trkpt>
      <trkpt lat="46.346016" lon="14.317707">
        <ele>882.091186523439</ele>
        <time>2006-04-08T07:06:04Z</time>
      </trkpt>
      <trkpt lat="46.346207" lon="14.317698">
        <ele>894.588012695313</ele>
        <time>2006-04-08T07:06:39Z</time>
      </trkpt>
      <trkpt lat="46.34642" lon="14.317701">
        <ele>904.646423339844</ele>
        <time>2006-04-08T07:07:23Z</time>
      </trkpt>
      <trkpt lat="46.346519" lon="14.317612">
        <ele>907.389587402345</ele>
        <time>2006-04-08T07:07:49Z</time>
      </trkpt>
      <trkpt lat="46.346367" lon="14.318445">
        <ele>956.157592773439</ele>
        <time>2006-04-08T07:10:06Z</time>
      </trkpt>
      <trkpt lat="46.34634" lon="14.318705">
        <ele>949.756774902344</ele>
        <time>2006-04-08T07:10:31Z</time>
      </trkpt>
      <trkpt lat="46.346233" lon="14.318867">
        <ele>957.376770019531</ele>
        <time>2006-04-08T07:11:04Z</time>
      </trkpt>
      <trkpt lat="46.345955" lon="14.319475">
        <ele>977.18878173828</ele>
        <time>2006-04-08T07:12:33Z</time>
      </trkpt>
      <trkpt lat="46.34597" lon="14.319841">
        <ele>982.065612792968</ele>
        <time>2006-04-08T07:13:04Z</time>
      </trkpt>
      <trkpt lat="46.345985" lon="14.319847">
        <ele>979.932006835939</ele>
        <time>2006-04-08T07:13:06Z</time>
      </trkpt>
      <trkpt lat="46.346191" lon="14.31984">
        <ele>974.750427246094</ele>
        <time>2006-04-08T07:13:35Z</time>
      </trkpt>
      <trkpt lat="46.346531" lon="14.319847">
        <ele>1001.57281494141</ele>
        <time>2006-04-08T07:14:54Z</time>
      </trkpt>
      <trkpt lat="46.346416" lon="14.320316">
        <ele>1028.39514160156</ele>
        <time>2006-04-08T07:15:53Z</time>
      </trkpt>
      <trkpt lat="46.346382" lon="14.320518">
        <ele>1023.51837158203</ele>
        <time>2006-04-08T07:16:24Z</time>
      </trkpt>
      <trkpt lat="46.346596" lon="14.320733">
        <ele>1031.748046875</ele>
        <time>2006-04-08T07:17:41Z</time>
      </trkpt>
      <trkpt lat="46.346588" lon="14.320824">
        <ele>1027.78564453125</ele>
        <time>2006-04-08T07:17:50Z</time>
      </trkpt>
      <trkpt lat="46.346809" lon="14.321218">
        <ele>1056.13195800781</ele>
        <time>2006-04-08T07:20:07Z</time>
      </trkpt>
      <trkpt lat="46.34684" lon="14.32145">
        <ele>1057.65600585937</ele>
        <time>2006-04-08T07:20:44Z</time>
      </trkpt>
      <trkpt lat="46.347233" lon="14.32167">
        <ele>1074.115234375</ele>
        <time>2006-04-08T07:23:31Z</time>
      </trkpt>
      <trkpt lat="46.347263" lon="14.321404">
        <ele>1085.39282226562</ele>
        <time>2006-04-08T07:24:22Z</time>
      </trkpt>
      <trkpt lat="46.347271" lon="14.321357">
        <ele>1085.39282226562</ele>
        <time>2006-04-08T07:24:27Z</time>
      </trkpt>
      <trkpt lat="46.347382" lon="14.321295">
        <ele>1087.22155761719</ele>
        <time>2006-04-08T07:25:07Z</time>
      </trkpt>
      <trkpt lat="46.348141" lon="14.321997">
        <ele>1150.61999511719</ele>
        <time>2006-04-08T07:31:58Z</time>
      </trkpt>
      <trkpt lat="46.348724" lon="14.322989">
        <ele>1227.734375</ele>
        <time>2006-04-08T07:40:18Z</time>
      </trkpt>
      <trkpt lat="46.348866" lon="14.323107">
        <ele>1240.8408203125</ele>
        <time>2006-04-08T07:41:17Z</time>
      </trkpt>
      <trkpt lat="46.349453" lon="14.324047">
        <ele>1290.21838378906</ele>
        <time>2006-04-08T07:48:50Z</time>
      </trkpt>
      <trkpt lat="46.349514" lon="14.324083">
        <ele>1296.314453125</ele>
        <time>2006-04-08T07:49:42Z</time>
      </trkpt>
      <trkpt lat="46.349842" lon="14.324245">
        <ele>1326.79443359375</ele>
        <time>2006-04-08T07:53:06Z</time>
      </trkpt>
      <trkpt lat="46.350334" lon="14.324892">
        <ele>1359.71276855469</ele>
        <time>2006-04-08T07:57:15Z</time>
      </trkpt>
      <trkpt lat="46.350468" lon="14.325358">
        <ele>1382.57275390625</ele>
        <time>2006-04-08T07:59:43Z</time>
      </trkpt>
      <trkpt lat="46.350506" lon="14.325347">
        <ele>1393.54565429687</ele>
        <time>2006-04-08T07:59:57Z</time>
      </trkpt>
      <trkpt lat="46.350765" lon="14.326591">
        <ele>1432.56005859375</ele>
        <time>2006-04-08T08:04:46Z</time>
      </trkpt>
      <trkpt lat="46.350739" lon="14.327898">
        <ele>1463.0400390625</ele>
        <time>2006-04-08T08:09:39Z</time>
      </trkpt>
      <trkpt lat="46.35075" lon="14.328655">
        <ele>1481.6328125</ele>
        <time>2006-04-08T08:11:22Z</time>
      </trkpt>
      <trkpt lat="46.35083" lon="14.329514">
        <ele>1483.15686035156</ele>
        <time>2006-04-08T08:12:45Z</time>
      </trkpt>
      <trkpt lat="46.350815" lon="14.329708">
        <ele>1488.03356933594</ele>
        <time>2006-04-08T08:13:06Z</time>
      </trkpt>
      <trkpt lat="46.350803" lon="14.329753">
        <ele>1488.03356933594</ele>
        <time>2006-04-08T08:13:10Z</time>
      </trkpt>
      <trkpt lat="46.350895" lon="14.3302">
        <ele>1491.38635253906</ele>
        <time>2006-04-08T08:14:11Z</time>
      </trkpt>
      <trkpt lat="46.350918" lon="14.330227">
        <ele>1490.77685546875</ele>
        <time>2006-04-08T08:14:14Z</time>
      </trkpt>
      <trkpt lat="46.351208" lon="14.330858">
        <ele>1501.74963378906</ele>
        <time>2006-04-08T08:15:29Z</time>
      </trkpt>
      <trkpt lat="46.35136" lon="14.331511">
        <ele>1510.8935546875</ele>
        <time>2006-04-08T08:17:00Z</time>
      </trkpt>
      <trkpt lat="46.351517" lon="14.331865">
        <ele>1514.24645996094</ele>
        <time>2006-04-08T08:17:47Z</time>
      </trkpt>
      <trkpt lat="46.351681" lon="14.332583">
        <ele>1520.03759765625</ele>
        <time>2006-04-08T08:19:00Z</time>
      </trkpt>
      <trkpt lat="46.351719" lon="14.333061">
        <ele>1521.2568359375</ele>
        <time>2006-04-08T08:19:45Z</time>
      </trkpt>
      <trkpt lat="46.3517" lon="14.333128">
        <ele>1521.86645507813</ele>
        <time>2006-04-08T08:19:52Z</time>
      </trkpt>
      <trkpt lat="46.351696" lon="14.3332">
        <ele>1521.2568359375</ele>
        <time>2006-04-08T08:19:57Z</time>
      </trkpt>
      <trkpt lat="46.351643" lon="14.333424">
        <ele>1524</ele>
        <time>2006-04-08T08:20:25Z</time>
      </trkpt>
      <trkpt lat="46.351601" lon="14.333417">
        <ele>1531.61999511719</ele>
        <time>2006-04-08T08:24:27Z</time>
      </trkpt>
      <trkpt lat="46.351601" lon="14.33343">
        <ele>1534.66796875</ele>
        <time>2006-04-08T08:24:34Z</time>
      </trkpt>
    </trkseg>
  </trk>
</gpx>
